sensor_id;sensor_type;location;lat;lon;timestamp;pressure;altitude;pressure_sealevel;temperature;humidity
51237;BME280;37312;47.550;18.818;2022-08-19T00:01:18;98594.41;;;27.25;50.43
51237;BME280;37312;47.550;18.818;2022-08-19T00:03:48;98587.97;;;27.21;50.57
51237;BME280;37312;47.550;18.818;2022-08-19T00:06:15;98588.22;;;27.16;50.66
51237;BME280;37312;47.550;18.818;2022-08-19T00:08:41;98580.97;;;27.11;50.78
51237;BME280;37312;47.550;18.818;2022-08-19T00:11:07;98571.38;;;27.05;50.97
51237;BME280;37312;47.550;18.818;2022-08-19T00:13:33;98578.41;;;27.02;51.22
51237;BME280;37312;47.550;18.818;2022-08-19T00:15:59;98576.72;;;26.98;51.37
51237;BME280;37312;47.550;18.818;2022-08-19T00:18:26;98586.06;;;26.93;51.54
51237;BME280;37312;47.550;18.818;2022-08-19T00:20:52;98593.91;;;26.91;51.51
51237;BME280;37312;47.550;18.818;2022-08-19T00:23:18;98586.31;;;26.88;51.70
51237;BME280;37312;47.550;18.818;2022-08-19T00:25:44;98582.56;;;26.80;51.91
51237;BME280;37312;47.550;18.818;2022-08-19T00:28:11;98583.91;;;26.71;52.09
51237;BME280;37312;47.550;18.818;2022-08-19T00:30:36;98581.03;;;26.67;52.17
51237;BME280;37312;47.550;18.818;2022-08-19T00:33:03;98574.44;;;26.72;52.28
51237;BME280;37312;47.550;18.818;2022-08-19T00:35:29;98574.56;;;26.75;51.85
51237;BME280;37312;47.550;18.818;2022-08-19T00:37:55;98569.84;;;26.76;52.11
51237;BME280;37312;47.550;18.818;2022-08-19T00:40:21;98577.22;;;26.72;51.87
51237;BME280;37312;47.550;18.818;2022-08-19T00:42:47;98578.38;;;26.71;52.04
51237;BME280;37312;47.550;18.818;2022-08-19T00:45:17;98570.78;;;26.68;52.12
51237;BME280;37312;47.550;18.818;2022-08-19T00:47:44;98562.75;;;26.62;52.09
51237;BME280;37312;47.550;18.818;2022-08-19T00:50:13;98585.13;;;26.57;52.43
51237;BME280;37312;47.550;18.818;2022-08-19T00:52:42;98570.59;;;26.60;52.09
51237;BME280;37312;47.550;18.818;2022-08-19T00:55:18;98570.72;;;26.64;52.06
51237;BME280;37312;47.550;18.818;2022-08-19T00:57:52;98577.03;;;26.65;51.96
51237;BME280;37312;47.550;18.818;2022-08-19T01:00:21;98573.56;;;26.68;51.74
51237;BME280;37312;47.550;18.818;2022-08-19T01:02:48;98580.94;;;26.63;51.89
51237;BME280;37312;47.550;18.818;2022-08-19T01:05:20;98568.63;;;26.61;51.95
51237;BME280;37312;47.550;18.818;2022-08-19T01:07:48;98564.28;;;26.60;52.03
51237;BME280;37312;47.550;18.818;2022-08-19T01:10:17;98553.91;;;26.57;52.05
51237;BME280;37312;47.550;18.818;2022-08-19T01:12:46;98564.75;;;26.50;52.29
51237;BME280;37312;47.550;18.818;2022-08-19T01:15:21;98560.41;;;26.49;52.37
51237;BME280;37312;47.550;18.818;2022-08-19T01:17:48;98559.50;;;26.45;52.52
51237;BME280;37312;47.550;18.818;2022-08-19T01:20:18;98565.34;;;26.43;52.60
51237;BME280;37312;47.550;18.818;2022-08-19T01:22:56;98562.84;;;26.38;52.68
51237;BME280;37312;47.550;18.818;2022-08-19T01:25:35;98565.09;;;26.32;53.08
51237;BME280;37312;47.550;18.818;2022-08-19T01:28:04;98547.88;;;26.23;53.38
51237;BME280;37312;47.550;18.818;2022-08-19T01:30:33;98555.25;;;26.19;53.20
51237;BME280;37312;47.550;18.818;2022-08-19T01:33:00;98552.56;;;26.23;53.08
51237;BME280;37312;47.550;18.818;2022-08-19T01:35:28;98547.16;;;26.26;52.93
51237;BME280;37312;47.550;18.818;2022-08-19T01:38:02;98540.47;;;26.27;52.72
51237;BME280;37312;47.550;18.818;2022-08-19T01:40:32;98522.75;;;26.28;52.61
51237;BME280;37312;47.550;18.818;2022-08-19T01:42:59;98516.44;;;26.28;52.53
51237;BME280;37312;47.550;18.818;2022-08-19T01:45:27;98511.00;;;26.31;52.22
51237;BME280;37312;47.550;18.818;2022-08-19T01:47:55;98514.22;;;26.33;52.06
51237;BME280;37312;47.550;18.818;2022-08-19T01:50:21;98522.84;;;26.32;52.08
51237;BME280;37312;47.550;18.818;2022-08-19T01:52:47;98512.63;;;26.32;51.95
51237;BME280;37312;47.550;18.818;2022-08-19T01:55:20;98509.75;;;26.29;51.98
51237;BME280;37312;47.550;18.818;2022-08-19T01:57:52;98505.41;;;26.28;52.19
51237;BME280;37312;47.550;18.818;2022-08-19T02:00:22;98487.94;;;26.24;52.12
51237;BME280;37312;47.550;18.818;2022-08-19T02:02:49;98493.09;;;26.25;52.04
51237;BME280;37312;47.550;18.818;2022-08-19T02:05:15;98502.88;;;26.23;52.25
51237;BME280;37312;47.550;18.818;2022-08-19T02:07:41;98511.41;;;26.17;52.29
51237;BME280;37312;47.550;18.818;2022-08-19T02:10:12;98515.69;;;26.15;52.21
51237;BME280;37312;47.550;18.818;2022-08-19T02:12:39;98514.53;;;26.16;52.25
51237;BME280;37312;47.550;18.818;2022-08-19T02:15:05;98510.50;;;26.13;52.73
51237;BME280;37312;47.550;18.818;2022-08-19T02:17:31;98518.34;;;26.11;52.59
51237;BME280;37312;47.550;18.818;2022-08-19T02:19:58;98513.53;;;26.08;52.69
51237;BME280;37312;47.550;18.818;2022-08-19T02:22:25;98509.59;;;26.09;52.69
51237;BME280;37312;47.550;18.818;2022-08-19T02:24:54;98501.94;;;26.03;52.89
51237;BME280;37312;47.550;18.818;2022-08-19T02:27:21;98493.75;;;26.06;52.79
51237;BME280;37312;47.550;18.818;2022-08-19T02:29:49;98492.97;;;26.06;52.83
51237;BME280;37312;47.550;18.818;2022-08-19T02:32:17;98495.31;;;26.19;52.25
51237;BME280;37312;47.550;18.818;2022-08-19T02:34:46;98489.78;;;26.19;52.33
51237;BME280;37312;47.550;18.818;2022-08-19T02:37:13;98495.41;;;26.23;52.15
51237;BME280;37312;47.550;18.818;2022-08-19T02:39:58;98496.56;;;26.22;52.14
51237;BME280;37312;47.550;18.818;2022-08-19T02:42:25;98489.34;;;26.17;52.23
51237;BME280;37312;47.550;18.818;2022-08-19T02:44:51;98502.88;;;26.23;51.87
51237;BME280;37312;47.550;18.818;2022-08-19T02:47:18;98519.09;;;26.24;51.81
51237;BME280;37312;47.550;18.818;2022-08-19T02:49:45;98506.81;;;26.21;51.76
51237;BME280;37312;47.550;18.818;2022-08-19T02:52:11;98516.69;;;26.23;51.79
51237;BME280;37312;47.550;18.818;2022-08-19T02:54:38;98524.97;;;26.23;51.71
51237;BME280;37312;47.550;18.818;2022-08-19T02:57:04;98529.56;;;26.18;51.91
51237;BME280;37312;47.550;18.818;2022-08-19T02:59:32;98516.94;;;26.17;51.94
51237;BME280;37312;47.550;18.818;2022-08-19T03:01:58;98518.78;;;26.13;51.96
51237;BME280;37312;47.550;18.818;2022-08-19T03:04:24;98520.41;;;26.14;51.88
51237;BME280;37312;47.550;18.818;2022-08-19T03:06:51;98513.38;;;26.17;51.90
51237;BME280;37312;47.550;18.818;2022-08-19T03:09:19;98516.84;;;26.14;52.00
51237;BME280;37312;47.550;18.818;2022-08-19T03:11:45;98527.06;;;26.13;52.12
51237;BME280;37312;47.550;18.818;2022-08-19T03:14:11;98534.91;;;26.11;52.43
51237;BME280;37312;47.550;18.818;2022-08-19T03:16:47;98539.09;;;26.05;52.54
51237;BME280;37312;47.550;18.818;2022-08-19T03:19:16;98537.72;;;25.99;52.87
51237;BME280;37312;47.550;18.818;2022-08-19T03:21:45;98546.44;;;26.01;52.84
51237;BME280;37312;47.550;18.818;2022-08-19T03:24:13;98549.28;;;26.05;52.49
51237;BME280;37312;47.550;18.818;2022-08-19T03:26:53;98547.34;;;26.05;52.52
51237;BME280;37312;47.550;18.818;2022-08-19T03:29:24;98542.63;;;26.06;52.47
51237;BME280;37312;47.550;18.818;2022-08-19T03:31:51;98549.88;;;26.10;52.31
51237;BME280;37312;47.550;18.818;2022-08-19T03:34:26;98554.00;;;26.04;52.70
51237;BME280;37312;47.550;18.818;2022-08-19T03:37:06;98543.91;;;25.96;52.92
51237;BME280;37312;47.550;18.818;2022-08-19T03:39:33;98545.09;;;25.95;52.87
51237;BME280;37312;47.550;18.818;2022-08-19T03:42:01;98546.66;;;25.96;53.02
51237;BME280;37312;47.550;18.818;2022-08-19T03:44:29;98548.94;;;26.06;52.48
51237;BME280;37312;47.550;18.818;2022-08-19T03:46:57;98547.34;;;26.05;52.58
51237;BME280;37312;47.550;18.818;2022-08-19T03:49:26;98550.34;;;26.00;52.73
51237;BME280;37312;47.550;18.818;2022-08-19T03:51:54;98565.19;;;25.95;53.08
51237;BME280;37312;47.550;18.818;2022-08-19T03:54:22;98554.28;;;25.99;52.99
51237;BME280;37312;47.550;18.818;2022-08-19T03:56:50;98557.47;;;26.01;52.77
51237;BME280;37312;47.550;18.818;2022-08-19T03:59:20;98551.16;;;26.00;52.71
51237;BME280;37312;47.550;18.818;2022-08-19T04:01:46;98548.84;;;26.03;52.61
51237;BME280;37312;47.550;18.818;2022-08-19T04:04:12;98560.59;;;25.99;52.50
51237;BME280;37312;47.550;18.818;2022-08-19T04:06:39;98560.69;;;26.03;52.56
51237;BME280;37312;47.550;18.818;2022-08-19T04:09:08;98560.00;;;26.06;52.55
51237;BME280;37312;47.550;18.818;2022-08-19T04:11:42;98573.91;;;26.10;52.45
51237;BME280;37312;47.550;18.818;2022-08-19T04:14:14;98571.94;;;26.10;52.69
51237;BME280;37312;47.550;18.818;2022-08-19T04:16:40;98579.44;;;26.10;52.72
51237;BME280;37312;47.550;18.818;2022-08-19T04:19:06;98578.59;;;26.09;52.76
51237;BME280;37312;47.550;18.818;2022-08-19T04:21:33;98576.66;;;26.10;52.97
51237;BME280;37312;47.550;18.818;2022-08-19T04:23:59;98571.94;;;26.10;53.19
51237;BME280;37312;47.550;18.818;2022-08-19T04:26:28;98565.50;;;26.06;53.40
51237;BME280;37312;47.550;18.818;2022-08-19T04:28:58;98572.75;;;26.11;53.31
51237;BME280;37312;47.550;18.818;2022-08-19T04:31:27;98573.53;;;26.11;53.38
51237;BME280;37312;47.550;18.818;2022-08-19T04:33:58;98565.47;;;26.18;53.23
51237;BME280;37312;47.550;18.818;2022-08-19T04:36:28;98564.97;;;26.29;52.86
51237;BME280;37312;47.550;18.818;2022-08-19T04:38:56;98567.13;;;26.35;52.29
51237;BME280;37312;47.550;18.818;2022-08-19T04:41:22;98570.53;;;26.45;52.25
51237;BME280;37312;47.550;18.818;2022-08-19T04:44:07;98575.25;;;26.44;52.49
51237;BME280;37312;47.550;18.818;2022-08-19T04:46:34;98577.56;;;26.42;52.69
51237;BME280;37312;47.550;18.818;2022-08-19T04:49:02;98570.88;;;26.43;52.24
51237;BME280;37312;47.550;18.818;2022-08-19T04:51:32;98576.84;;;26.45;52.67
51237;BME280;37312;47.550;18.818;2022-08-19T04:53:58;98576.06;;;26.45;52.14
51237;BME280;37312;47.550;18.818;2022-08-19T04:56:26;98578.47;;;26.46;52.21
51237;BME280;37312;47.550;18.818;2022-08-19T04:58:53;98581.69;;;26.48;51.96
51237;BME280;37312;47.550;18.818;2022-08-19T05:01:25;98582.72;;;26.56;52.05
51237;BME280;37312;47.550;18.818;2022-08-19T05:03:52;98594.66;;;26.60;51.57
51237;BME280;37312;47.550;18.818;2022-08-19T05:06:20;98576.84;;;26.57;52.13
51237;BME280;37312;47.550;18.818;2022-08-19T05:08:46;98587.72;;;26.66;52.13
51237;BME280;37312;47.550;18.818;2022-08-19T05:13:39;98583.72;;;26.79;51.59
51237;BME280;37312;47.550;18.818;2022-08-19T05:16:05;98585.25;;;26.93;51.03
51237;BME280;37312;47.550;18.818;2022-08-19T05:18:31;98579.66;;;27.05;50.97
51237;BME280;37312;47.550;18.818;2022-08-19T05:21:18;98579.50;;;27.14;49.70
51237;BME280;37312;47.550;18.818;2022-08-19T05:24:04;98585.38;;;27.28;49.73
51237;BME280;37312;47.550;18.818;2022-08-19T05:26:38;98596.09;;;27.45;49.05
51237;BME280;37312;47.550;18.818;2022-08-19T05:29:06;98591.41;;;27.50;48.61
51237;BME280;37312;47.550;18.818;2022-08-19T05:31:33;98590.16;;;27.63;48.14
51237;BME280;37312;47.550;18.818;2022-08-19T05:33:59;98590.97;;;27.63;48.38
51237;BME280;37312;47.550;18.818;2022-08-19T05:36:26;98594.03;;;27.94;48.53
51237;BME280;37312;47.550;18.818;2022-08-19T05:38:53;98600.91;;;28.19;47.47
51237;BME280;37312;47.550;18.818;2022-08-19T05:41:19;98591.25;;;28.29;47.20
51237;BME280;37312;47.550;18.818;2022-08-19T05:43:45;98599.75;;;28.40;46.62
51237;BME280;37312;47.550;18.818;2022-08-19T05:46:19;98596.13;;;28.55;46.11
51237;BME280;37312;47.550;18.818;2022-08-19T05:48:45;98597.16;;;28.89;45.20
51237;BME280;37312;47.550;18.818;2022-08-19T05:51:12;98602.88;;;28.77;45.33
51237;BME280;37312;47.550;18.818;2022-08-19T05:53:38;98588.34;;;28.84;45.49
51237;BME280;37312;47.550;18.818;2022-08-19T05:56:09;98577.19;;;29.03;44.76
51237;BME280;37312;47.550;18.818;2022-08-19T05:58:36;98586.16;;;29.16;44.31
51237;BME280;37312;47.550;18.818;2022-08-19T06:01:04;98574.94;;;29.32;44.08
51237;BME280;37312;47.550;18.818;2022-08-19T06:03:35;98591.31;;;29.41;43.73
51237;BME280;37312;47.550;18.818;2022-08-19T06:06:04;98581.94;;;29.26;43.16
51237;BME280;37312;47.550;18.818;2022-08-19T06:08:31;98581.03;;;29.41;42.97
51237;BME280;37312;47.550;18.818;2022-08-19T06:10:57;98579.31;;;29.60;42.50
51237;BME280;37312;47.550;18.818;2022-08-19T06:13:23;98580.59;;;29.66;42.60
51237;BME280;37312;47.550;18.818;2022-08-19T06:15:50;98577.66;;;29.78;42.40
51237;BME280;37312;47.550;18.818;2022-08-19T06:18:16;98574.38;;;30.03;40.36
51237;BME280;37312;47.550;18.818;2022-08-19T06:20:42;98585.56;;;29.76;40.93
51237;BME280;37312;47.550;18.818;2022-08-19T06:23:08;98566.84;;;29.73;40.74
51237;BME280;37312;47.550;18.818;2022-08-19T06:25:35;98570.56;;;29.84;41.31
51237;BME280;37312;47.550;18.818;2022-08-19T06:28:02;98565.09;;;29.88;39.89
51237;BME280;37312;47.550;18.818;2022-08-19T06:30:28;98565.81;;;29.85;40.64
51237;BME280;37312;47.550;18.818;2022-08-19T06:32:55;98555.28;;;29.98;39.32
51237;BME280;37312;47.550;18.818;2022-08-19T06:35:21;98555.16;;;30.21;38.72
51237;BME280;37312;47.550;18.818;2022-08-19T06:37:47;98554.91;;;30.29;38.63
51237;BME280;37312;47.550;18.818;2022-08-19T06:40:14;98554.66;;;30.42;37.12
51237;BME280;37312;47.550;18.818;2022-08-19T06:42:40;98548.69;;;30.40;36.46
51237;BME280;37312;47.550;18.818;2022-08-19T06:45:06;98557.31;;;30.31;36.93
51237;BME280;37312;47.550;18.818;2022-08-19T06:47:33;98567.50;;;30.53;35.73
51237;BME280;37312;47.550;18.818;2022-08-19T06:50:00;98581.00;;;30.55;35.32
51237;BME280;37312;47.550;18.818;2022-08-19T06:52:34;98578.63;;;30.57;35.40
51237;BME280;37312;47.550;18.818;2022-08-19T06:55:01;98591.72;;;30.57;35.59
51237;BME280;37312;47.550;18.818;2022-08-19T06:57:27;98594.66;;;30.33;36.80
51237;BME280;37312;47.550;18.818;2022-08-19T06:59:58;98593.06;;;30.32;36.79
51237;BME280;37312;47.550;18.818;2022-08-19T07:02:25;98603.53;;;30.46;37.45
51237;BME280;37312;47.550;18.818;2022-08-19T07:04:52;98603.63;;;30.91;35.52
51237;BME280;37312;47.550;18.818;2022-08-19T07:07:20;98604.84;;;30.93;35.44
51237;BME280;37312;47.550;18.818;2022-08-19T07:09:46;98609.25;;;30.94;35.31
51237;BME280;37312;47.550;18.818;2022-08-19T07:12:13;98608.03;;;31.36;34.82
51237;BME280;37312;47.550;18.818;2022-08-19T07:14:41;98607.22;;;31.84;34.14
51237;BME280;37312;47.550;18.818;2022-08-19T07:17:10;98621.72;;;32.15;33.51
51237;BME280;37312;47.550;18.818;2022-08-19T07:19:37;98615.28;;;32.04;34.34
51237;BME280;37312;47.550;18.818;2022-08-19T07:22:06;98625.03;;;31.76;34.70
51237;BME280;37312;47.550;18.818;2022-08-19T07:24:33;98623.09;;;31.80;34.27
51237;BME280;37312;47.550;18.818;2022-08-19T07:27:02;98627.69;;;32.17;34.78
51237;BME280;37312;47.550;18.818;2022-08-19T07:29:30;98619.31;;;32.10;34.50
51237;BME280;37312;47.550;18.818;2022-08-19T07:31:57;98624.25;;;32.49;33.47
51237;BME280;37312;47.550;18.818;2022-08-19T07:34:25;98622.72;;;32.58;32.67
51237;BME280;37312;47.550;18.818;2022-08-19T07:36:52;98638.03;;;33.29;31.99
51237;BME280;37312;47.550;18.818;2022-08-19T07:39:31;98638.06;;;33.61;31.10
51237;BME280;37312;47.550;18.818;2022-08-19T07:41:59;98631.22;;;34.13;30.03
51237;BME280;37312;47.550;18.818;2022-08-19T07:44:26;98632.66;;;34.50;30.63
51237;BME280;37312;47.550;18.818;2022-08-19T07:46:54;98616.53;;;34.86;28.81
51237;BME280;37312;47.550;18.818;2022-08-19T07:49:22;98619.31;;;34.90;29.05
51237;BME280;37312;47.550;18.818;2022-08-19T07:52:00;98628.63;;;35.80;27.70
51237;BME280;37312;47.550;18.818;2022-08-19T07:54:28;98633.22;;;35.56;27.37
51237;BME280;37312;47.550;18.818;2022-08-19T07:56:55;98632.00;;;35.01;28.04
51237;BME280;37312;47.550;18.818;2022-08-19T07:59:22;98639.28;;;34.92;29.32
51237;BME280;37312;47.550;18.818;2022-08-19T08:01:50;98636.94;;;34.79;28.48
51237;BME280;37312;47.550;18.818;2022-08-19T08:04:17;98639.19;;;35.06;28.57
51237;BME280;37312;47.550;18.818;2022-08-19T08:07:04;98640.53;;;34.80;29.12
51237;BME280;37312;47.550;18.818;2022-08-19T08:09:49;98645.03;;;34.63;29.47
51237;BME280;37312;47.550;18.818;2022-08-19T08:12:22;98646.38;;;34.08;29.28
51237;BME280;37312;47.550;18.818;2022-08-19T08:14:52;98643.03;;;34.56;28.55
51237;BME280;37312;47.550;18.818;2022-08-19T08:17:24;98638.50;;;35.43;27.36
51237;BME280;37312;47.550;18.818;2022-08-19T08:19:51;98642.16;;;35.89;26.37
51237;BME280;37312;47.550;18.818;2022-08-19T08:22:20;98643.09;;;35.72;26.30
51237;BME280;37312;47.550;18.818;2022-08-19T08:25:10;98639.94;;;35.17;27.01
51237;BME280;37312;47.550;18.818;2022-08-19T08:27:38;98635.84;;;34.48;28.70
51237;BME280;37312;47.550;18.818;2022-08-19T08:30:10;98630.16;;;34.80;28.25
51237;BME280;37312;47.550;18.818;2022-08-19T08:32:38;98624.28;;;35.23;28.88
51237;BME280;37312;47.550;18.818;2022-08-19T08:35:06;98621.59;;;35.99;27.56
51237;BME280;37312;47.550;18.818;2022-08-19T08:37:33;98604.09;;;35.46;27.46
51237;BME280;37312;47.550;18.818;2022-08-19T08:40:03;98605.28;;;35.45;28.06
51237;BME280;37312;47.550;18.818;2022-08-19T08:42:34;98602.66;;;35.73;27.19
51237;BME280;37312;47.550;18.818;2022-08-19T08:45:06;98613.25;;;35.96;26.92
51237;BME280;37312;47.550;18.818;2022-08-19T08:47:41;98609.13;;;35.66;27.35
51237;BME280;37312;47.550;18.818;2022-08-19T08:50:18;98620.16;;;35.39;27.36
51237;BME280;37312;47.550;18.818;2022-08-19T08:52:48;98603.19;;;35.57;26.63
51237;BME280;37312;47.550;18.818;2022-08-19T08:55:19;98608.81;;;35.98;26.32
51237;BME280;37312;47.550;18.818;2022-08-19T08:57:51;98610.75;;;35.67;26.03
51237;BME280;37312;47.550;18.818;2022-08-19T09:00:35;98615.09;;;35.72;26.41
51237;BME280;37312;47.550;18.818;2022-08-19T09:03:03;98609.44;;;36.17;25.94
51237;BME280;37312;47.550;18.818;2022-08-19T09:05:49;98603.94;;;36.02;25.57
51237;BME280;37312;47.550;18.818;2022-08-19T09:10:51;98609.94;;;37.00;24.69
51237;BME280;37312;47.550;18.818;2022-08-19T09:16:13;98605.53;;;38.17;23.15
51237;BME280;37312;47.550;18.818;2022-08-19T09:18:46;98603.22;;;37.21;24.70
51237;BME280;37312;47.550;18.818;2022-08-19T09:21:19;98590.28;;;37.00;24.13
51237;BME280;37312;47.550;18.818;2022-08-19T09:23:46;98572.19;;;37.28;24.28
51237;BME280;37312;47.550;18.818;2022-08-19T09:26:14;98572.94;;;37.32;23.60
51237;BME280;37312;47.550;18.818;2022-08-19T09:28:42;98579.34;;;36.82;24.77
51237;BME280;37312;47.550;18.818;2022-08-19T09:31:13;98586.00;;;37.66;24.39
51237;BME280;37312;47.550;18.818;2022-08-19T09:33:39;98580.47;;;37.83;23.52
51237;BME280;37312;47.550;18.818;2022-08-19T09:36:09;98570.44;;;38.05;23.50
51237;BME280;37312;47.550;18.818;2022-08-19T09:38:35;98585.47;;;37.95;23.31
51237;BME280;37312;47.550;18.818;2022-08-19T09:41:11;98587.47;;;37.74;23.87
51237;BME280;37312;47.550;18.818;2022-08-19T09:43:40;98588.31;;;37.71;24.44
51237;BME280;37312;47.550;18.818;2022-08-19T09:46:07;98576.47;;;38.24;23.89
51237;BME280;37312;47.550;18.818;2022-08-19T09:48:36;98576.59;;;37.96;23.86
51237;BME280;37312;47.550;18.818;2022-08-19T09:51:08;98570.38;;;37.18;24.43
51237;BME280;37312;47.550;18.818;2022-08-19T09:53:34;98562.69;;;36.68;24.96
51237;BME280;37312;47.550;18.818;2022-08-19T09:56:01;98573.56;;;36.66;24.67
51237;BME280;37312;47.550;18.818;2022-08-19T09:58:28;98578.72;;;36.02;25.74
51237;BME280;37312;47.550;18.818;2022-08-19T10:00:57;98568.22;;;35.76;26.00
51237;BME280;37312;47.550;18.818;2022-08-19T10:03:24;98565.19;;;36.59;26.03
51237;BME280;37312;47.550;18.818;2022-08-19T10:05:50;98561.72;;;36.82;25.99
51237;BME280;37312;47.550;18.818;2022-08-19T10:08:20;98564.03;;;36.87;26.04
51237;BME280;37312;47.550;18.818;2022-08-19T10:10:47;98558.00;;;36.30;25.90
51237;BME280;37312;47.550;18.818;2022-08-19T10:13:15;98557.97;;;35.58;27.38
51237;BME280;37312;47.550;18.818;2022-08-19T10:15:41;98561.59;;;36.31;26.38
51237;BME280;37312;47.550;18.818;2022-08-19T10:18:07;98553.97;;;36.59;26.00
51237;BME280;37312;47.550;18.818;2022-08-19T10:20:33;98559.06;;;36.40;26.72
51237;BME280;37312;47.550;18.818;2022-08-19T10:23:02;98565.66;;;35.88;26.51
51237;BME280;37312;47.550;18.818;2022-08-19T10:25:29;98548.25;;;36.04;26.49
51237;BME280;37312;47.550;18.818;2022-08-19T10:27:55;98555.13;;;36.00;26.51
51237;BME280;37312;47.550;18.818;2022-08-19T10:30:21;98557.66;;;36.25;27.31
51237;BME280;37312;47.550;18.818;2022-08-19T10:32:47;98554.81;;;36.86;25.73
51237;BME280;37312;47.550;18.818;2022-08-19T10:35:13;98557.81;;;36.14;26.52
51237;BME280;37312;47.550;18.818;2022-08-19T10:37:40;98563.53;;;36.00;27.01
51237;BME280;37312;47.550;18.818;2022-08-19T10:40:07;98573.09;;;36.06;26.62
51237;BME280;37312;47.550;18.818;2022-08-19T10:42:35;98559.53;;;36.01;26.31
51237;BME280;37312;47.550;18.818;2022-08-19T10:45:01;98554.72;;;36.01;26.65
51237;BME280;37312;47.550;18.818;2022-08-19T10:47:28;98554.41;;;36.30;26.26
51237;BME280;37312;47.550;18.818;2022-08-19T10:49:54;98553.50;;;36.37;26.54
51237;BME280;37312;47.550;18.818;2022-08-19T10:52:41;98566.91;;;36.22;27.14
51237;BME280;37312;47.550;18.818;2022-08-19T10:55:08;98563.03;;;36.43;25.96
51237;BME280;37312;47.550;18.818;2022-08-19T10:57:52;98561.09;;;36.36;26.29
51237;BME280;37312;47.550;18.818;2022-08-19T11:00:20;98550.75;;;36.64;26.34
51237;BME280;37312;47.550;18.818;2022-08-19T11:02:47;98563.97;;;36.32;26.82
51237;BME280;37312;47.550;18.818;2022-08-19T11:05:15;98561.69;;;36.24;26.63
51237;BME280;37312;47.550;18.818;2022-08-19T11:07:42;98561.66;;;36.27;27.24
51237;BME280;37312;47.550;18.818;2022-08-19T11:10:13;98561.44;;;36.42;26.60
51237;BME280;37312;47.550;18.818;2022-08-19T11:12:40;98557.38;;;36.46;27.07
51237;BME280;37312;47.550;18.818;2022-08-19T11:15:07;98555.50;;;36.67;25.76
51237;BME280;37312;47.550;18.818;2022-08-19T11:17:38;98564.81;;;36.57;26.13
51237;BME280;37312;47.550;18.818;2022-08-19T11:20:11;98561.34;;;36.18;27.77
51237;BME280;37312;47.550;18.818;2022-08-19T11:22:38;98569.09;;;36.38;26.33
51237;BME280;37312;47.550;18.818;2022-08-19T11:25:04;98562.22;;;36.42;26.80
51237;BME280;37312;47.550;18.818;2022-08-19T11:27:30;98571.25;;;36.57;26.53
51237;BME280;37312;47.550;18.818;2022-08-19T11:29:56;98568.31;;;36.68;26.36
51237;BME280;37312;47.550;18.818;2022-08-19T11:32:22;98565.97;;;36.63;26.09
51237;BME280;37312;47.550;18.818;2022-08-19T11:34:48;98557.38;;;36.46;26.38
51237;BME280;37312;47.550;18.818;2022-08-19T11:37:14;98554.53;;;36.50;25.64
51237;BME280;37312;47.550;18.818;2022-08-19T11:39:41;98560.87;;;36.54;26.48
51237;BME280;37312;47.550;18.818;2022-08-19T11:42:07;98558.41;;;36.60;26.06
51237;BME280;37312;47.550;18.818;2022-08-19T11:44:52;98565.16;;;36.66;25.99
51237;BME280;37312;47.550;18.818;2022-08-19T11:47:20;98551.03;;;36.97;26.19
51237;BME280;37312;47.550;18.818;2022-08-19T11:49:46;98550.66;;;36.94;25.63
51237;BME280;37312;47.550;18.818;2022-08-19T11:52:13;98541.19;;;36.58;25.99
51237;BME280;37312;47.550;18.818;2022-08-19T11:54:39;98537.87;;;36.66;25.40
51237;BME280;37312;47.550;18.818;2022-08-19T11:57:05;98536.50;;;36.47;26.59
51237;BME280;37312;47.550;18.818;2022-08-19T11:59:31;98543.69;;;36.21;26.26
51237;BME280;37312;47.550;18.818;2022-08-19T12:01:57;98539.38;;;36.44;26.54
51237;BME280;37312;47.550;18.818;2022-08-19T12:04:23;98545.47;;;36.39;26.51
51237;BME280;37312;47.550;18.818;2022-08-19T12:06:49;98554.03;;;36.28;26.17
51237;BME280;37312;47.550;18.818;2022-08-19T12:09:15;98547.81;;;36.09;25.83
51237;BME280;37312;47.550;18.818;2022-08-19T12:11:43;98546.44;;;36.25;25.61
51237;BME280;37312;47.550;18.818;2022-08-19T12:14:11;98544.28;;;36.67;25.92
51237;BME280;37312;47.550;18.818;2022-08-19T12:16:37;98554.00;;;37.13;26.15
51237;BME280;37312;47.550;18.818;2022-08-19T12:19:04;98561.66;;;37.36;24.87
51237;BME280;37312;47.550;18.818;2022-08-19T12:21:33;98560.59;;;37.26;26.32
51237;BME280;37312;47.550;18.818;2022-08-19T12:24:00;98564.06;;;37.10;25.05
51237;BME280;37312;47.550;18.818;2022-08-19T12:26:28;98563.66;;;36.85;25.92
51237;BME280;37312;47.550;18.818;2022-08-19T12:28:55;98556.03;;;36.85;26.27
51237;BME280;37312;47.550;18.818;2022-08-19T12:31:21;98546.88;;;36.23;26.08
51237;BME280;37312;47.550;18.818;2022-08-19T12:33:47;98550.66;;;36.06;26.03
51237;BME280;37312;47.550;18.818;2022-08-19T12:36:15;98546.72;;;36.00;26.22
51237;BME280;37312;47.550;18.818;2022-08-19T12:38:41;98540.41;;;36.26;26.44
51237;BME280;37312;47.550;18.818;2022-08-19T12:41:11;98536.19;;;36.72;26.64
51237;BME280;37312;47.550;18.818;2022-08-19T12:43:37;98532.00;;;36.84;25.85
51237;BME280;37312;47.550;18.818;2022-08-19T12:46:05;98529.34;;;36.73;25.72
51237;BME280;37312;47.550;18.818;2022-08-19T12:48:34;98532.41;;;36.83;25.75
51237;BME280;37312;47.550;18.818;2022-08-19T12:51:01;98518.97;;;36.98;25.08
51237;BME280;37312;47.550;18.818;2022-08-19T12:53:31;98518.44;;;36.79;25.47
51237;BME280;37312;47.550;18.818;2022-08-19T12:55:58;98514.53;;;36.73;25.39
51237;BME280;37312;47.550;18.818;2022-08-19T12:58:26;98520.81;;;37.08;25.71
51237;BME280;37312;47.550;18.818;2022-08-19T13:00:52;98519.03;;;37.41;25.34
51237;BME280;37312;47.550;18.818;2022-08-19T13:03:18;98522.19;;;37.43;25.48
51237;BME280;37312;47.550;18.818;2022-08-19T13:05:44;98520.81;;;37.08;24.65